KUNU/UNU METAR and TAF weather

Enter ICAO airport designator
Station Type Date Time Source
KUNU METAR 2023/02/06 20:15 UTC NOAA

KUNU 062015Z AUTO 12012KT 10SM CLR 03/M03 A2999 RMK AO2 T00251031


Station Type Date Time Source
KUNU Decoded METAR 2023/02/06 20:15 UTC NOAA

Juneau, Dodge County Airport, WI, United States (KUNU) 43-25-36N 088-42-12W
Feb 06, 2023 - 03:15 PM EST / 2023.02.06 2015 UTC
Wind: from the ESE (120 degrees) at 14 MPH (12 KT):0
Visibility: 10 mile(s):0
Sky conditions: clear
Temperature: 36.5 F (2.5 C)
Dew Point: 26.4 F (-3.1 C)
Relative Humidity: 66%
Pressure (altimeter): 29.99 in. Hg (1015 hPa)
ob: KUNU 062015Z AUTO 12012KT 10SM CLR 03/M03 A2999 RMK AO2 T00251031
cycle: 20

Station Type Date Time Source
KUNU TAF UTC NOAA

Error!

Example: see airport list